Time;durP1;ratioP1;P1;durP2;ratioP2;P2;SDS_P1;SDS_P2;PMS_P1;PMS_P2;Temp;Humidity;BMP_temperature;BMP_pressure;BME280_temperature;BME280_humidity;BME280_pressure;Samples;Min_cycle;Max_cycle;Signal;HPM_P1;HPM_P2
2021/01/27 00:00:40;;;;;;;38.78;21.45;;;2.90;69.60;;;;;;5074162;28;20074;-48
2021/01/27 00:03:06;;;;;;;40.95;22.33;;;2.90;69.70;;;;;;5075395;28;20028;-48
2021/01/27 00:05:38;;;;;;;38.97;22.60;;;2.90;69.80;;;;;;5074884;28;20074;-48
2021/01/27 00:08:05;;;;;;;39.78;22.02;;;3.00;69.80;;;;;;5075220;28;20024;-48
2021/01/27 00:10:31;;;;;;;44.08;25.05;;;3.00;69.80;;;;;;5074863;28;20069;-49
2021/01/27 00:12:57;;;;;;;51.58;27.42;;;3.00;69.60;;;;;;5075567;28;20121;-47
2021/01/27 00:15:27;;;;;;;48.65;24.60;;;2.90;69.40;;;;;;5073978;28;20115;-48
2021/01/27 00:17:53;;;;;;;40.38;22.95;;;2.90;69.60;;;;;;5076500;28;20076;-48
2021/01/27 00:20:21;;;;;;;45.28;22.55;;;2.90;70.00;;;;;;5078622;28;20033;-48
2021/01/27 00:22:47;;;;;;;38.75;22.55;;;3.00;69.50;;;;;;5079074;28;20035;-48
2021/01/27 00:25:15;;;;;;;36.88;20.75;;;2.90;69.50;;;;;;5078061;28;20031;-48
2021/01/27 00:27:41;;;;;;;33.65;18.65;;;3.00;69.50;;;;;;5078754;28;20032;-48
2021/01/27 00:30:12;;;;;;;35.28;19.17;;;3.00;69.40;;;;;;5078409;28;20082;-51
2021/01/27 00:32:38;;;;;;;;;;;3.00;69.30;;;;;;5079649;28;20111;-48
2021/01/27 00:35:04;;;;;;;38.60;20.92;;;3.00;69.20;;;;;;5078557;28;20043;-48
2021/01/27 00:37:30;;;;;;;41.72;21.10;;;3.00;69.30;;;;;;5078692;28;20037;-47
2021/01/27 00:39:56;;;;;;;35.38;19.67;;;3.00;69.40;;;;;;5078095;28;20090;-49
2021/01/27 00:42:21;;;;;;;36.25;20.52;;;3.00;69.40;;;;;;5078311;28;20025;-48
2021/01/27 00:44:47;;;;;;;37.42;19.88;;;3.00;69.50;;;;;;5077655;28;20029;-51
2021/01/27 00:47:13;;;;;;;37.35;20.92;;;3.00;69.50;;;;;;5078212;28;20082;-48
2021/01/27 00:49:39;;;;;;;39.00;21.17;;;3.00;69.50;;;;;;5078231;28;20410;-51
2021/01/27 00:52:05;;;;;;;41.65;22.58;;;3.10;69.60;;;;;;5078281;28;20058;-48
2021/01/27 00:54:31;;;;;;;36.38;20.52;;;3.10;69.40;;;;;;5078146;28;20468;-48
2021/01/27 00:56:57;;;;;;;35.78;19.70;;;3.10;69.40;;;;;;5077952;28;20036;-48
2021/01/27 00:59:22;;;;;;;33.15;19.10;;;3.10;69.20;;;;;;5077714;28;20430;-49
2021/01/27 01:01:48;;;;;;;34.33;20.38;;;3.10;69.20;;;;;;5075639;28;20028;-50
2021/01/27 01:04:14;;;;;;;30.58;17.38;;;3.10;69.00;;;;;;5077591;28;20025;-51
2021/01/27 01:06:39;;;;;;;27.58;16.85;;;3.10;68.90;;;;;;5076455;28;20342;-51
2021/01/27 01:09:05;;;;;;;26.55;16.55;;;3.10;68.90;;;;;;5077031;28;20060;-49
2021/01/27 01:11:31;;;;;;;28.08;16.50;;;3.10;69.10;;;;;;5076708;28;20158;-49
2021/01/27 01:13:57;;;;;;;29.20;18.23;;;3.10;69.00;;;;;;5078502;28;20029;-48
2021/01/27 01:16:23;;;;;;;28.08;15.95;;;3.10;69.00;;;;;;5077439;28;20025;-49
2021/01/27 01:18:48;;;;;;;19.63;12.40;;;3.10;69.00;;;;;;5077694;28;20136;-48
2021/01/27 01:21:14;;;;;;;20.52;12.50;;;3.10;68.60;;;;;;5076021;28;20021;-51
2021/01/27 01:23:41;;;;;;;16.98;11.38;;;3.10;68.60;;;;;;5076937;28;20445;-48
2021/01/27 01:26:07;;;;;;;17.75;10.77;;;3.10;68.60;;;;;;5075510;28;20044;-49
2021/01/27 01:28:34;;;;;;;18.02;11.55;;;3.00;68.50;;;;;;5075454;28;20060;-49
2021/01/27 01:30:59;;;;;;;20.55;12.07;;;3.10;68.40;;;;;;5075436;28;20036;-49
2021/01/27 01:33:31;;;;;;;22.15;13.35;;;3.10;68.30;;;;;;5076209;28;20032;-48
2021/01/27 01:35:57;;;;;;;17.23;10.80;;;3.10;68.40;;;;;;5077000;28;20086;-48
2021/01/27 01:38:23;;;;;;;19.20;12.38;;;3.20;68.10;;;;;;5077656;28;20060;-49
2021/01/27 01:40:58;;;;;;;18.17;10.50;;;3.20;68.00;;;;;;5076809;28;20035;-49
2021/01/27 01:43:33;;;;;;;17.30;10.95;;;3.20;67.80;;;;;;5077351;28;20388;-48
2021/01/27 01:46:05;;;;;;;16.55;9.98;;;3.10;67.60;;;;;;5076951;28;20077;-49
2021/01/27 01:48:33;;;;;;;12.30;8.43;;;3.20;67.70;;;;;;5077699;28;20033;-48
2021/01/27 01:51:01;;;;;;;14.80;8.23;;;3.20;67.60;;;;;;5076428;28;20077;-50
2021/01/27 01:53:28;;;;;;;21.02;12.43;;;3.20;67.70;;;;;;5077472;28;20037;-48
2021/01/27 01:55:57;;;;;;;18.40;12.20;;;3.20;67.40;;;;;;5076751;28;20027;-49
2021/01/27 01:58:23;;;;;;;16.90;11.10;;;3.20;67.20;;;;;;5076694;28;20028;-49
2021/01/27 02:00:56;;;;;;;17.73;11.63;;;3.30;67.10;;;;;;5076023;28;20036;-49
2021/01/27 02:03:22;;;;;;;19.63;12.23;;;3.30;67.00;;;;;;5077456;28;20323;-50
2021/01/27 02:05:48;;;;;;;26.98;16.38;;;3.20;67.00;;;;;;5075830;28;20036;-49
2021/01/27 02:08:14;;;;;;;26.50;15.60;;;3.30;66.70;;;;;;5077070;28;20032;-48
2021/01/27 02:10:40;;;;;;;21.48;12.75;;;3.30;66.80;;;;;;5076405;28;20450;-50
2021/01/27 02:13:34;;;;;;;16.48;11.30;;;3.30;66.60;;;;;;5076414;28;20032;-48
2021/01/27 02:16:20;;;;;;;17.80;11.63;;;3.30;66.30;;;;;;5076372;28;20103;-48
2021/01/27 02:18:57;;;;;;;19.70;11.93;;;3.30;66.20;;;;;;5076484;28;20102;-50
2021/01/27 02:21:51;;;;;;;18.50;12.15;;;3.30;66.10;;;;;;5076156;28;20020;-49
2021/01/27 02:24:37;;;;;;;20.70;11.75;;;3.30;66.10;;;;;;5077194;28;20031;-48
2021/01/27 02:27:11;;;;;;;17.55;11.30;;;3.30;66.00;;;;;;5075629;28;20027;-48
2021/01/27 02:29:51;;;;;;;16.02;10.25;;;3.20;66.00;;;;;;5077012;28;20183;-49
2021/01/27 02:32:38;;;;;;;20.50;11.57;;;3.20;66.10;;;;;;5076567;28;20043;-48
2021/01/27 02:35:04;;;;;;;19.60;11.63;;;3.20;66.40;;;;;;5075713;28;20046;-48
2021/01/27 02:37:57;;;;;;;19.50;12.70;;;3.20;66.40;;;;;;5076090;28;20040;-49
2021/01/27 02:40:29;;;;;;;18.73;11.68;;;3.20;66.40;;;;;;5075239;28;20040;-49
2021/01/27 02:43:12;;;;;;;20.40;12.10;;;3.20;66.50;;;;;;5075941;28;20047;-48
2021/01/27 02:45:46;;;;;;;22.33;13.00;;;3.20;66.40;;;;;;5076139;28;20028;-49
2021/01/27 02:48:41;;;;;;;20.08;12.05;;;3.20;66.40;;;;;;5076258;28;20036;-49
2021/01/27 02:51:14;;;;;;;20.48;11.85;;;3.30;66.60;;;;;;5075197;28;20044;-49
2021/01/27 02:53:47;;;;;;;21.92;12.82;;;3.20;66.50;;;;;;5076379;28;20076;-48
2021/01/27 02:56:18;;;;;;;23.98;14.02;;;3.30;66.70;;;;;;5074869;28;20427;-48
2021/01/27 02:59:07;;;;;;;22.23;13.52;;;3.30;66.70;;;;;;5076339;28;20357;-50
2021/01/27 03:01:59;;;;;;;25.20;14.90;;;3.30;66.80;;;;;;5075476;28;20123;-48
2021/01/27 03:04:39;;;;;;;23.17;14.18;;;3.30;66.70;;;;;;5076128;28;20323;-49
2021/01/27 03:07:07;;;;;;;27.67;16.27;;;3.30;66.60;;;;;;5075579;28;20059;-49
2021/01/27 03:10:03;;;;;;;21.33;13.43;;;3.40;66.70;;;;;;5075710;28;20039;-49
2021/01/27 03:12:28;;;;;;;24.58;15.00;;;3.30;66.70;;;;;;5075397;28;20430;-49
2021/01/27 03:14:54;;;;;;;21.52;14.25;;;3.40;66.90;;;;;;5075195;28;20032;-48
2021/01/27 03:17:22;;;;;;;21.45;12.82;;;3.40;66.80;;;;;;5075601;28;20048;-49
2021/01/27 03:20:08;;;;;;;23.40;14.00;;;3.40;66.90;;;;;;5075170;28;20040;-49
2021/01/27 03:22:42;;;;;;;20.98;13.85;;;3.50;67.00;;;;;;5075934;28;20043;-49
2021/01/27 03:25:22;;;;;;;28.13;16.42;;;3.50;67.00;;;;;;5075049;28;20456;-49
2021/01/27 03:27:55;;;;;;;27.88;17.83;;;3.50;67.00;;;;;;5075409;28;20431;-52
2021/01/27 03:30:21;;;;;;;25.67;15.30;;;3.50;66.90;;;;;;5075678;28;20029;-48
2021/01/27 03:33:02;;;;;;;23.85;16.08;;;3.60;67.00;;;;;;5075485;28;20456;-48
2021/01/27 03:35:44;;;;;;;21.75;13.68;;;3.60;67.00;;;;;;5075427;28;20123;-48
2021/01/27 03:38:25;;;;;;;23.77;14.70;;;3.60;67.10;;;;;;5075890;28;20043;-52
2021/01/27 03:41:14;;;;;;;22.80;14.27;;;3.60;67.20;;;;;;5074884;28;20028;-48
2021/01/27 03:44:03;;;;;;;23.90;14.48;;;3.60;67.30;;;;;;5073704;28;20112;-48
2021/01/27 03:46:41;;;;;;;22.35;13.98;;;3.60;67.20;;;;;;5073355;28;20127;-50
2021/01/27 03:49:19;;;;;;;21.58;14.75;;;3.70;67.30;;;;;;5075742;28;20040;-51
2021/01/27 03:51:52;;;;;;;21.15;13.50;;;3.70;67.20;;;;;;5076870;28;20020;-51
2021/01/27 03:54:19;;;;;;;19.95;12.88;;;3.70;67.20;;;;;;5079757;28;20032;-49
2021/01/27 03:57:13;;;;;;;22.90;14.23;;;3.70;67.20;;;;;;5078577;28;20017;-49
2021/01/27 03:59:39;;;;;;;23.95;14.02;;;3.70;67.10;;;;;;5079144;28;20045;-52
2021/01/27 04:02:14;;;;;;;20.23;12.25;;;3.70;67.20;;;;;;5078156;28;20023;-48
2021/01/27 04:04:40;;;;;;;20.58;12.75;;;3.70;67.10;;;;;;5078867;28;20074;-52
2021/01/27 04:07:06;;;;;;;22.77;13.23;;;3.70;67.00;;;;;;5078522;28;20021;-48
2021/01/27 04:09:31;;;;;;;22.00;12.88;;;3.70;66.90;;;;;;5079167;28;20032;-50
2021/01/27 04:11:57;;;;;;;20.02;12.85;;;3.70;66.90;;;;;;5078193;28;20057;-47
2021/01/27 04:14:23;;;;;;;20.08;13.38;;;3.70;67.00;;;;;;5079273;28;20327;-49
2021/01/27 04:16:48;;;;;;;23.27;15.35;;;3.70;66.90;;;;;;5075818;28;20053;-49
2021/01/27 04:19:14;;;;;;;19.40;13.40;;;3.70;66.70;;;;;;5076008;28;20056;-49
2021/01/27 04:21:40;;;;;;;21.58;13.68;;;3.60;66.70;;;;;;5078280;28;20036;-53
2021/01/27 04:24:06;;;;;;;22.98;14.13;;;3.60;66.80;;;;;;5077966;28;20083;-49
2021/01/27 04:26:32;;;;;;;24.42;15.30;;;3.60;66.90;;;;;;5076212;28;20056;-50
2021/01/27 04:28:57;;;;;;;20.13;12.80;;;3.60;66.70;;;;;;5078489;28;20025;-52
2021/01/27 04:31:23;;;;;;;25.02;15.57;;;3.60;66.80;;;;;;5078033;28;20025;-49
2021/01/27 04:33:49;;;;;;;27.25;16.90;;;3.60;66.80;;;;;;5077736;28;20024;-49
2021/01/27 04:36:15;;;;;;;30.00;16.77;;;3.60;66.70;;;;;;5076461;28;20024;-51
2021/01/27 04:38:41;;;;;;;28.75;17.33;;;3.60;66.80;;;;;;5077250;28;20028;-50
2021/01/27 04:41:07;;;;;;;25.55;16.27;;;3.60;66.70;;;;;;5075778;28;20518;-49
2021/01/27 04:43:34;;;;;;;25.75;15.90;;;3.60;66.70;;;;;;5076809;28;20038;-49
2021/01/27 04:46:06;;;;;;;24.92;15.18;;;3.60;66.70;;;;;;5076682;28;20024;-49
2021/01/27 04:48:42;;;;;;;21.98;12.95;;;3.60;66.60;;;;;;5077968;28;20067;-51
2021/01/27 04:51:13;;;;;;;24.13;15.40;;;3.60;66.70;;;;;;5077974;28;20032;-48
2021/01/27 04:54:05;;;;;;;24.80;14.35;;;3.60;66.50;;;;;;5079031;28;20029;-49
2021/01/27 04:56:51;;;;;;;25.90;16.92;;;3.60;66.30;;;;;;5076542;28;20433;-49
2021/01/27 05:00:11;;;;;;;20.92;12.90;;;3.50;66.30;;;;;;5078673;28;20422;-49
2021/01/27 05:02:43;;;;;;;24.23;14.35;;;3.50;66.40;;;;;;5051921;28;20055;-49
2021/01/27 05:05:13;;;;;;;28.58;17.48;;;3.50;66.60;;;;;;5076345;28;20021;-48
2021/01/27 05:07:51;;;;;;;23.03;13.77;;;3.50;66.70;;;;;;5076634;28;20043;-48
2021/01/27 05:10:29;;;;;;;21.70;13.85;;;3.50;66.60;;;;;;5075994;28;20025;-51
2021/01/27 05:13:16;;;;;;;22.50;14.07;;;3.50;66.60;;;;;;5076984;28;20058;-51
2021/01/27 05:15:42;;;;;;;21.35;13.07;;;3.50;66.70;;;;;;5076722;28;20107;-49
2021/01/27 05:18:12;;;;;;;19.70;12.95;;;3.50;66.70;;;;;;5077294;28;20131;-48
2021/01/27 05:20:38;;;;;;;22.55;12.80;;;3.50;66.70;;;;;;5074940;28;20037;-51
2021/01/27 05:23:04;;;;;;;18.88;12.00;;;3.40;66.50;;;;;;5067892;28;20028;-48
2021/01/27 05:25:46;;;;;;;19.73;12.68;;;3.40;66.40;;;;;;5070350;28;20021;-54
2021/01/27 05:28:19;;;;;;;16.25;10.40;;;3.40;66.30;;;;;;5057911;28;20432;-48
2021/01/27 05:30:55;;;;;;;25.80;13.75;;;3.40;66.40;;;;;;5064425;28;20060;-48
2021/01/27 05:33:49;;;;;;;21.90;12.95;;;3.30;66.30;;;;;;5082764;28;20024;-48
2021/01/27 05:36:26;;;;;;;22.42;14.05;;;3.30;66.40;;;;;;5076248;28;20035;-48
2021/01/27 05:39:09;;;;;;;24.52;14.32;;;3.30;66.50;;;;;;5068989;28;20033;-48
2021/01/27 05:41:36;;;;;;;25.67;15.80;;;3.20;66.60;;;;;;5075629;28;20021;-48
2021/01/27 05:44:15;;;;;;;23.85;14.25;;;3.20;66.70;;;;;;5077344;28;20104;-48
2021/01/27 05:46:42;;;;;;;25.50;16.45;;;3.20;66.70;;;;;;5074426;28;20044;-48
2021/01/27 05:49:27;;;;;;;26.00;15.70;;;3.20;66.70;;;;;;5087743;28;20089;-49
2021/01/27 05:51:53;;;;;;;25.35;15.27;;;3.20;66.80;;;;;;5080426;28;20364;-49
2021/01/27 05:54:29;;;;;;;28.45;17.83;;;3.20;67.00;;;;;;5056808;28;20060;-52
2021/01/27 05:56:55;;;;;;;42.60;25.50;;;3.20;67.10;;;;;;5071896;28;20032;-48
2021/01/27 05:59:26;;;;;;;32.33;18.73;;;3.20;67.10;;;;;;5076410;28;20044;-49
2021/01/27 06:02:00;;;;;;;24.40;14.55;;;3.20;67.10;;;;;;5075394;28;20033;-48
2021/01/27 06:04:28;;;;;;;25.85;15.52;;;3.20;67.00;;;;;;5076030;28;20036;-48
2021/01/27 06:06:57;;;;;;;26.90;16.48;;;3.20;67.00;;;;;;5075947;28;20055;-48
2021/01/27 06:09:43;;;;;;;25.65;15.15;;;3.20;67.10;;;;;;5076496;28;20024;-48
2021/01/27 06:12:21;;;;;;;27.98;17.02;;;3.20;66.80;;;;;;5075250;28;20024;-49
2021/01/27 06:14:48;;;;;;;27.77;16.00;;;3.20;66.70;;;;;;5061339;28;20025;-51
2021/01/27 06:17:27;;;;;;;27.23;15.43;;;3.20;66.90;;;;;;5074664;28;20035;-49
2021/01/27 06:20:15;;;;;;;40.08;23.48;;;3.20;67.10;;;;;;5074086;28;20040;-50
2021/01/27 06:23:02;;;;;;;26.30;14.45;;;3.20;67.00;;;;;;5066841;28;20076;-50
2021/01/27 06:25:28;;;;;;;31.42;17.08;;;3.10;67.00;;;;;;5075204;28;20063;-49
2021/01/27 06:28:18;;;;;;;25.90;14.55;;;3.10;67.10;;;;;;5076344;28;20029;-51
2021/01/27 06:31:13;;;;;;;24.85;15.43;;;3.20;67.30;;;;;;5075373;28;20116;-48
2021/01/27 06:34:14;;;;;;;28.02;15.82;;;3.20;67.30;;;;;;5074761;28;20129;-49
2021/01/27 06:37:11;;;;;;;42.03;20.70;;;3.20;67.30;;;;;;5072567;28;20070;-49
2021/01/27 06:40:19;;;;;;;27.58;16.52;;;3.20;67.30;;;;;;5070952;28;20044;-48
2021/01/27 06:42:56;;;;;;;27.67;14.68;;;3.30;67.20;;;;;;5071386;28;20029;-49
2021/01/27 06:45:40;;;;;;;38.47;22.15;;;3.20;67.00;;;;;;5074397;28;20032;-48
2021/01/27 06:48:36;;;;;;;37.53;20.60;;;3.30;66.90;;;;;;5074055;28;20035;-49
2021/01/27 06:51:19;;;;;;;29.48;18.27;;;3.30;67.10;;;;;;5075323;28;20116;-51
2021/01/27 06:54:26;;;;;;;22.05;13.80;;;3.30;67.00;;;;;;5062422;28;20031;-50
2021/01/27 06:56:52;;;;;;;24.73;15.25;;;3.30;67.10;;;;;;5071598;28;20028;-48
2021/01/27 06:59:56;;;;;;;27.30;15.95;;;3.30;67.00;;;;;;5075446;28;20052;-51
2021/01/27 07:02:52;;;;;;;27.90;16.65;;;3.40;67.00;;;;;;5070021;28;20082;-49
2021/01/27 07:05:30;;;;;;;29.80;17.42;;;3.40;67.20;;;;;;5073649;28;20098;-48
2021/01/27 07:08:33;;;;;;;27.00;16.48;;;3.40;67.40;;;;;;5075304;28;20353;-50
2021/01/27 07:11:24;;;;;;;25.70;15.65;;;3.50;67.80;;;;;;5073366;28;20452;-50
2021/01/27 07:14:15;;;;;;;31.05;18.60;;;3.50;68.20;;;;;;5074907;28;20557;-48
2021/01/27 07:16:56;;;;;;;24.23;14.93;;;3.50;68.30;;;;;;5074046;28;20037;-48
2021/01/27 07:19:36;;;;;;;22.55;14.20;;;3.50;68.20;;;;;;5073784;28;20052;-53
2021/01/27 07:22:10;;;;;;;19.40;13.65;;;3.50;68.10;;;;;;5073731;28;20024;-52
2021/01/27 07:24:45;;;;;;;19.40;13.00;;;3.50;68.10;;;;;;5075301;28;20025;-49
2021/01/27 07:27:22;;;;;;;22.27;13.50;;;3.50;68.20;;;;;;5067680;28;20020;-47
2021/01/27 07:30:01;;;;;;;19.63;12.52;;;3.50;68.40;;;;;;5069467;28;20043;-48
2021/01/27 07:32:36;;;;;;;21.52;12.95;;;3.50;68.40;;;;;;5069633;28;20035;-48
2021/01/27 07:35:07;;;;;;;21.63;14.05;;;3.50;68.60;;;;;;5063128;28;20107;-52
2021/01/27 07:37:42;;;;;;;21.92;14.00;;;3.50;68.80;;;;;;5072378;28;20056;-47
2021/01/27 07:40:10;;;;;;;23.15;14.48;;;3.50;69.10;;;;;;5074194;28;20413;-45
2021/01/27 07:42:40;;;;;;;21.38;13.73;;;3.50;69.00;;;;;;5074818;28;20320;-48
2021/01/27 07:45:14;;;;;;;21.40;14.43;;;3.50;69.00;;;;;;5072422;28;20020;-46
2021/01/27 07:48:17;;;;;;;25.83;16.63;;;3.50;68.90;;;;;;5075986;28;20469;-47
2021/01/27 07:50:55;;;;;;;18.27;11.98;;;3.60;68.90;;;;;;5068783;28;20028;-45
2021/01/27 07:53:33;;;;;;;19.52;12.35;;;3.60;68.80;;;;;;5079414;28;20025;-44
2021/01/27 07:56:19;;;;;;;18.85;12.52;;;3.60;68.60;;;;;;5073545;28;20032;-45
2021/01/27 07:58:56;;;;;;;21.30;13.70;;;3.60;68.80;;;;;;5073781;28;20082;-48
2021/01/27 08:01:43;;;;;;;19.63;12.82;;;3.50;68.70;;;;;;5072136;28;20077;-45
2021/01/27 08:04:27;;;;;;;20.45;12.63;;;3.50;68.80;;;;;;5073303;28;20104;-48
2021/01/27 08:06:56;;;;;;;20.75;13.93;;;3.40;68.80;;;;;;5070637;28;20048;-46
2021/01/27 08:09:31;;;;;;;25.30;12.93;;;3.40;69.00;;;;;;5073654;28;20059;-44
2021/01/27 08:12:09;;;;;;;21.00;13.98;;;3.40;69.40;;;;;;5060085;28;20101;-46
2021/01/27 08:15:14;;;;;;;22.25;13.73;;;3.40;69.80;;;;;;5072174;28;20346;-45
2021/01/27 08:17:55;;;;;;;23.05;14.02;;;3.40;70.10;;;;;;5071126;28;20044;-45
2021/01/27 08:20:31;;;;;;;23.55;15.10;;;3.40;70.30;;;;;;5072898;28;20033;-46
2021/01/27 08:23:05;;;;;;;22.73;14.10;;;3.40;70.30;;;;;;5073698;28;20062;-47
2021/01/27 08:26:01;;;;;;;27.45;15.02;;;3.40;70.40;;;;;;5072539;28;20029;-45
2021/01/27 08:28:37;;;;;;;24.35;15.30;;;3.40;70.40;;;;;;5072943;28;20257;-49
2021/01/27 08:31:12;;;;;;;27.48;16.33;;;3.40;70.60;;;;;;5070734;28;20021;-49
2021/01/27 08:33:55;;;;;;;32.72;18.77;;;3.40;70.80;;;;;;5071181;28;20127;-52
2021/01/27 08:36:40;;;;;;;29.58;19.13;;;3.40;70.80;;;;;;5070596;28;20418;-48
2021/01/27 08:39:21;;;;;;;28.08;16.77;;;3.40;71.10;;;;;;5069883;28;20044;-48
2021/01/27 08:42:02;;;;;;;25.88;15.38;;;3.40;71.30;;;;;;5076072;28;20039;-48
2021/01/27 08:44:40;;;;;;;;;;;3.30;71.50;;;;;;5075704;28;21805;-50
2021/01/27 08:47:14;;;;;;;29.05;16.90;;;3.30;71.30;;;;;;5077103;28;19955;-48
2021/01/27 08:49:56;;;;;;;25.98;15.68;;;3.30;71.70;;;;;;5077110;28;20099;-48
2021/01/27 08:52:33;;;;;;;31.20;18.70;;;3.30;72.10;;;;;;5069268;28;20081;-49
2021/01/27 08:54:59;;;;;;;31.13;19.10;;;3.30;72.40;;;;;;5064437;28;20033;-50
2021/01/27 08:57:37;;;;;;;26.20;16.67;;;3.30;72.60;;;;;;5077193;28;20060;-50
2021/01/27 09:00:23;;;;;;;29.88;17.83;;;3.40;72.60;;;;;;5075342;28;20077;-50
2021/01/27 09:03:14;;;;;;;26.42;15.57;;;3.40;72.30;;;;;;5075933;28;20455;-53
2021/01/27 09:05:42;;;;;;;28.85;16.83;;;3.40;72.30;;;;;;5089604;28;20024;-56
2021/01/27 09:08:10;;;;;;;27.20;16.77;;;3.40;72.30;;;;;;5080043;28;20029;-46
2021/01/27 09:10:38;;;;;;;30.75;17.70;;;3.50;72.70;;;;;;5067331;28;20043;-47
2021/01/27 09:13:35;;;;;;;28.35;17.45;;;3.40;72.70;;;;;;5070525;28;20119;-47
2021/01/27 09:16:21;;;;;;;29.40;17.08;;;3.50;72.70;;;;;;5074043;28;20437;-52
2021/01/27 09:19:03;;;;;;;26.50;16.55;;;3.50;72.60;;;;;;5062725;28;20060;-51
2021/01/27 09:21:32;;;;;;;27.50;17.15;;;3.40;72.40;;;;;;5073647;28;20036;-51
2021/01/27 09:24:11;;;;;;;31.38;17.85;;;3.40;72.70;;;;;;5076968;28;20316;-51
2021/01/27 09:26:41;;;;;;;35.60;19.00;;;3.40;72.60;;;;;;5076722;28;20031;-52
2021/01/27 09:29:27;;;;;;;35.55;19.33;;;3.30;72.70;;;;;;5076521;28;20052;-49
2021/01/27 09:31:54;;;;;;;31.13;17.17;;;3.30;73.00;;;;;;5073103;28;20029;-53
2021/01/27 09:34:27;;;;;;;28.73;17.48;;;3.40;73.40;;;;;;5074484;28;20101;-50
2021/01/27 09:37:01;;;;;;;29.88;17.67;;;3.30;73.40;;;;;;5070170;28;20024;-48
2021/01/27 09:39:31;;;;;;;28.02;17.15;;;3.40;73.60;;;;;;5074886;28;20055;-48
2021/01/27 09:42:01;;;;;;;33.40;18.58;;;3.40;73.80;;;;;;5063325;28;20130;-49
2021/01/27 09:44:37;;;;;;;35.53;18.83;;;3.40;74.00;;;;;;5073405;28;20054;-49
2021/01/27 09:47:10;;;;;;;28.90;18.67;;;3.40;74.00;;;;;;5046114;28;20036;-51
2021/01/27 09:49:40;;;;;;;29.95;19.08;;;3.40;74.10;;;;;;5072250;28;20082;-48
2021/01/27 09:52:13;;;;;;;30.30;18.90;;;3.40;74.10;;;;;;5074627;28;20078;-46
2021/01/27 09:54:43;;;;;;;33.88;19.35;;;3.40;74.10;;;;;;5074787;28;20032;-46
2021/01/27 09:57:11;;;;;;;31.58;17.40;;;3.40;74.00;;;;;;5072305;28;20035;-46
2021/01/27 09:59:39;;;;;;;32.63;17.85;;;3.40;74.00;;;;;;5074284;28;20048;-46
2021/01/27 10:02:09;;;;;;;29.27;18.00;;;3.40;74.30;;;;;;5074179;28;20025;-47
2021/01/27 10:04:37;;;;;;;33.80;19.50;;;3.40;74.40;;;;;;5077502;28;20110;-45
2021/01/27 10:07:12;;;;;;;35.85;22.80;;;3.40;74.50;;;;;;5075093;28;20052;-45
2021/01/27 10:09:52;;;;;;;34.28;20.33;;;3.40;74.60;;;;;;5076796;28;20029;-45
2021/01/27 10:12:28;;;;;;;29.52;18.17;;;3.40;74.50;;;;;;5076142;28;20441;-45
2021/01/27 10:15:19;;;;;;;28.83;17.98;;;3.40;74.50;;;;;;5075359;28;20425;-45
2021/01/27 10:17:49;;;;;;;32.13;19.08;;;3.40;74.60;;;;;;5075573;28;20506;-45
2021/01/27 10:20:36;;;;;;;31.90;18.85;;;3.40;74.80;;;;;;5078368;28;20047;-46
2021/01/27 10:23:12;;;;;;;27.80;16.83;;;3.40;74.90;;;;;;5078575;28;20439;-45
2021/01/27 10:25:39;;;;;;;27.60;17.08;;;3.40;75.20;;;;;;5074253;28;20047;-46
2021/01/27 10:28:18;;;;;;;26.00;16.15;;;3.40;75.20;;;;;;5075129;28;20406;-44
2021/01/27 10:30:57;;;;;;;27.30;15.43;;;3.40;75.30;;;;;;5073948;28;20111;-45
2021/01/27 10:33:30;;;;;;;23.98;14.20;;;3.50;75.30;;;;;;5071787;28;20032;-49
2021/01/27 10:35:56;;;;;;;23.23;14.52;;;3.50;75.20;;;;;;5073787;28;20032;-44
2021/01/27 10:38:23;;;;;;;28.30;16.98;;;3.50;75.10;;;;;;5069479;28;20028;-46
2021/01/27 10:41:09;;;;;;;25.10;15.50;;;3.50;75.20;;;;;;5073637;28;20044;-45
2021/01/27 10:43:36;;;;;;;30.17;18.35;;;3.60;75.10;;;;;;5073085;28;20016;-46
2021/01/27 10:46:21;;;;;;;23.40;13.05;;;3.60;75.00;;;;;;5073659;28;20093;-46
2021/01/27 10:48:47;;;;;;;22.77;14.75;;;3.60;74.70;;;;;;5074398;28;20036;-47
2021/01/27 10:51:14;;;;;;;24.65;14.73;;;3.50;74.80;;;;;;5066204;28;20028;-47
2021/01/27 10:53:44;;;;;;;28.60;16.95;;;3.50;74.70;;;;;;5069707;28;20067;-45
2021/01/27 10:56:13;;;;;;;24.60;14.15;;;3.50;74.70;;;;;;5075829;28;20024;-47
2021/01/27 10:58:39;;;;;;;28.17;16.63;;;3.50;74.70;;;;;;5074951;28;20028;-46
2021/01/27 11:01:04;;;;;;;26.90;16.08;;;3.40;74.60;;;;;;5072443;28;20717;-47
2021/01/27 11:03:31;;;;;;;25.73;15.52;;;3.40;74.90;;;;;;5075209;28;20418;-48
2021/01/27 11:05:57;;;;;;;26.35;15.43;;;3.40;75.10;;;;;;5069353;28;20024;-49
2021/01/27 11:08:31;;;;;;;26.27;15.63;;;3.40;75.30;;;;;;5075377;28;20026;-45
2021/01/27 11:10:58;;;;;;;22.58;13.90;;;3.40;75.40;;;;;;5073935;28;20111;-46
2021/01/27 11:13:25;;;;;;;24.92;16.25;;;3.40;75.50;;;;;;5072871;28;20020;-45
2021/01/27 11:15:50;;;;;;;27.65;15.43;;;3.40;75.40;;;;;;5070085;28;20032;-47
2021/01/27 11:18:17;;;;;;;25.77;15.77;;;3.40;75.30;;;;;;5073956;28;20143;-47
2021/01/27 11:20:45;;;;;;;26.63;15.50;;;3.40;75.40;;;;;;5073400;28;20052;-44
2021/01/27 11:23:11;;;;;;;26.67;14.90;;;3.40;75.50;;;;;;5074675;28;20097;-47
2021/01/27 11:25:37;;;;;;;26.52;15.50;;;3.40;75.50;;;;;;5065642;28;20036;-48
2021/01/27 11:28:02;;;;;;;28.60;15.52;;;3.40;75.50;;;;;;5075545;28;20106;-47
2021/01/27 11:30:29;;;;;;;27.05;16.25;;;3.40;75.70;;;;;;5073699;28;20361;-48
2021/01/27 11:32:56;;;;;;;25.27;15.88;;;3.40;75.70;;;;;;5061453;28;20032;-47
2021/01/27 11:35:23;;;;;;;26.35;16.63;;;3.40;75.60;;;;;;5073804;28;20032;-47
2021/01/27 11:37:49;;;;;;;26.20;16.00;;;3.30;75.70;;;;;;5075048;28;20056;-49
2021/01/27 11:40:26;;;;;;;24.77;15.55;;;3.30;75.90;;;;;;5074537;28;20052;-48
2021/01/27 11:42:53;;;;;;;26.88;16.27;;;3.30;76.10;;;;;;5071773;28;20515;-49
2021/01/27 11:45:20;;;;;;;26.30;16.48;;;3.30;76.10;;;;;;5064597;28;20041;-47
2021/01/27 11:47:46;;;;;;;25.30;15.57;;;3.30;76.10;;;;;;5070801;28;20086;-49
2021/01/27 11:50:13;;;;;;;26.02;15.25;;;3.30;76.30;;;;;;5074552;28;20466;-49
2021/01/27 11:52:39;;;;;;;23.52;14.18;;;3.30;76.40;;;;;;5074357;28;20090;-47
2021/01/27 11:55:06;;;;;;;22.98;14.65;;;3.30;76.40;;;;;;5074474;28;20032;-50
2021/01/27 11:57:34;;;;;;;27.33;17.60;;;3.30;76.60;;;;;;5073140;28;20021;-47
2021/01/27 12:00:00;;;;;;;22.65;14.45;;;3.30;76.60;;;;;;5072272;28;20509;-50
2021/01/27 12:02:26;;;;;;;22.75;14.00;;;3.30;76.50;;;;;;5071735;28;20081;-52
2021/01/27 12:04:52;;;;;;;24.20;14.63;;;3.30;76.60;;;;;;5074100;28;20045;-50
2021/01/27 12:07:17;;;;;;;25.65;14.95;;;3.30;76.40;;;;;;5074141;28;20028;-48
2021/01/27 12:09:43;;;;;;;21.02;13.50;;;3.20;76.40;;;;;;5074610;28;20121;-52
2021/01/27 12:12:10;;;;;;;22.33;14.05;;;3.20;76.40;;;;;;5074964;28;20029;-49
2021/01/27 12:14:36;;;;;;;23.20;13.30;;;3.20;77.00;;;;;;5077875;28;20108;-48
2021/01/27 12:17:03;;;;;;;22.35;12.98;;;3.20;76.40;;;;;;5072358;28;20049;-48
2021/01/27 12:19:29;;;;;;;19.88;12.70;;;3.20;76.50;;;;;;5071379;28;20127;-48
2021/01/27 12:21:55;;;;;;;20.70;12.55;;;3.20;76.50;;;;;;5077654;28;20149;-48
2021/01/27 12:24:21;;;;;;;24.05;13.27;;;3.10;76.60;;;;;;5078344;28;20115;-47
2021/01/27 12:26:47;;;;;;;25.58;14.50;;;3.10;76.70;;;;;;5075676;28;20557;-50
2021/01/27 12:29:14;;;;;;;18.67;12.13;;;3.10;76.90;;;;;;5068142;28;20028;-52
2021/01/27 12:31:45;;;;;;;20.02;12.52;;;3.10;77.00;;;;;;5060482;28;20361;-52
2021/01/27 12:34:13;;;;;;;24.63;13.52;;;3.20;77.20;;;;;;5076090;28;20078;-53
2021/01/27 12:36:41;;;;;;;25.17;14.55;;;3.20;77.10;;;;;;5074940;28;20058;-52
2021/01/27 12:39:08;;;;;;;24.67;15.07;;;3.20;77.10;;;;;;5077598;28;20083;-51
2021/01/27 12:41:35;;;;;;;18.85;12.57;;;3.20;77.00;;;;;;5076272;28;20066;-50
2021/01/27 12:44:01;;;;;;;20.60;12.80;;;3.20;76.60;;;;;;5077543;28;20032;-52
2021/01/27 12:46:28;;;;;;;28.65;15.95;;;3.10;76.60;;;;;;5075273;28;20119;-51
2021/01/27 12:48:54;;;;;;;26.75;16.67;;;3.10;76.60;;;;;;5075706;28;20029;-50
2021/01/27 12:51:22;;;;;;;30.75;17.90;;;3.10;76.90;;;;;;5077386;28;20024;-52
2021/01/27 12:53:49;;;;;;;27.30;16.70;;;3.10;77.00;;;;;;5077805;28;20040;-49
2021/01/27 12:56:16;;;;;;;32.35;17.65;;;3.10;76.90;;;;;;5076735;28;20029;-51
2021/01/27 12:58:41;;;;;;;27.45;17.58;;;3.10;77.10;;;;;;5077139;28;20036;-50
2021/01/27 13:01:08;;;;;;;24.15;15.70;;;3.00;77.20;;;;;;5076997;28;20350;-52
2021/01/27 13:03:35;;;;;;;31.58;16.90;;;3.00;77.20;;;;;;5077245;28;20040;-52
2021/01/27 13:06:02;;;;;;;32.35;18.55;;;3.00;77.10;;;;;;5074212;28;20069;-52
2021/01/27 13:08:27;;;;;;;34.25;19.85;;;2.90;77.20;;;;;;5070240;28;20033;-49
2021/01/27 13:10:53;;;;;;;35.90;18.88;;;2.90;77.30;;;;;;5061331;28;20032;-52